Ana Sayfa
METAR-TAF:

METAR-TAF

Havaalanları :

Bearce Airport

Mount Ida, Arkansas, Amerika Birleşik Devletleri

Enlem: 34-33N, Boylam: 093-35W, yükseklik: 214 m

Güncel hava durumu gözlemi

Rapor saat 12:18 UTC de 12 dakika önce yapıldı.
Rüzgar doğudan 5 kt
Sıcaklık 21°C
Nem 88%
Basınç 1012 hPa
Görüş mesafesi: 1.2 km
500 ft yükseklikte az bulutlu
2200 ft yükseklikte çok bulutlu
şiddetli yağmur, Pus

METAR: KMWT 231218Z AUTO 10005KT 3/4SM +RA BR FEW005 OVC022 21/19 A2987 RMK AO2 P0052 T02060194

Saat: 07:30 (12:30 UTC)


TAF: eksik

4.000'den fazla havaalanı için hava durumu gözlemleri ve tahminleri (METAR ve TAF raporları).

Kullanılabilir istasyonlar harita üzerinde sarı ve kırmızı noktalarla gösterilir.

İstasyonun adını görmek için fareyi noktanın üzerinde gezdirin.

Sonrasında hava gözlem ve tahminlerini görmek için tıklayın.

Haritayı değiştirmek için: yaklaştırmak için siyah artı işaretli yeşil düğmeye ve uzaklaştırmak için de eksi işaretli düğmeye hızla tıklayın; bitişik haritalar için yeşil okları kullanın.


METAR-TAF: